Time;durP1;ratioP1;P1;durP2;ratioP2;P2;SDS_P1;SDS_P2;PMS_P1;PMS_P2;Temp;Humidity;BMP_temperature;BMP_pressure;BME280_temperature;BME280_humidity;BME280_pressure;Samples;Min_cycle;Max_cycle;Signal;HPM_P1;HPM_P2
2023/04/21 00:00:54;;;;;;;6.75;3.75;;;6.60;99.90;;;;;;4968675;28;20061;-70
2023/04/21 00:03:22;;;;;;;9.52;4.18;;;6.50;99.90;;;;;;4986584;28;20085;-70
2023/04/21 00:05:49;;;;;;;8.25;3.85;;;6.50;99.90;;;;;;4967998;28;20105;-70
2023/04/21 00:08:16;;;;;;;9.20;5.22;;;6.40;99.90;;;;;;4971821;28;20034;-71
2023/04/21 00:10:42;;;;;;;8.32;4.20;;;6.40;99.90;;;;;;4974093;28;20030;-70
2023/04/21 00:13:08;;;;;;;5.45;3.45;;;6.30;99.90;;;;;;4972225;28;20110;-70
2023/04/21 00:15:34;;;;;;;5.88;4.30;;;6.20;99.90;;;;;;4967616;28;20102;-71
2023/04/21 00:18:00;;;;;;;8.90;4.43;;;6.20;99.90;;;;;;4969150;28;20038;-70
2023/04/21 00:20:26;;;;;;;8.02;3.90;;;6.10;99.90;;;;;;4981538;28;20042;-70
2023/04/21 00:22:53;;;;;;;7.70;3.88;;;6.10;99.90;;;;;;4984789;28;20089;-70
2023/04/21 00:25:19;;;;;;;7.85;4.18;;;6.00;99.90;;;;;;4964916;28;20039;-71
2023/04/21 00:27:44;;;;;;;8.90;3.90;;;6.00;99.90;;;;;;4973403;28;20038;-70
2023/04/21 00:30:11;;;;;;;6.22;3.75;;;6.00;99.90;;;;;;4966673;28;20177;-70
2023/04/21 00:32:37;;;;;;;7.50;3.50;;;6.00;99.90;;;;;;4972887;28;20033;-71
2023/04/21 00:35:03;;;;;;;5.85;3.28;;;5.90;99.90;;;;;;4966576;28;20035;-71
2023/04/21 00:37:29;;;;;;;7.10;3.80;;;5.90;99.90;;;;;;4971868;28;20034;-70
2023/04/21 00:39:56;;;;;;;10.40;4.88;;;5.90;99.90;;;;;;4974457;28;20035;-71
2023/04/21 00:42:21;;;;;;;6.70;3.10;;;5.80;99.90;;;;;;4972763;28;20483;-71
2023/04/21 00:44:47;;;;;;;4.95;3.08;;;5.80;99.90;;;;;;4964764;28;20050;-70
2023/04/21 00:47:13;;;;;;;6.95;2.97;;;5.70;99.90;;;;;;4987750;28;20034;-70
2023/04/21 00:49:39;;;;;;;4.18;2.65;;;5.60;99.90;;;;;;4983511;28;20024;-70
2023/04/21 00:52:05;;;;;;;6.10;2.75;;;5.60;99.90;;;;;;4969963;28;20398;-71
2023/04/21 00:54:34;;;;;;;5.82;3.28;;;5.60;99.90;;;;;;4965525;28;20066;-71
2023/04/21 00:57:00;;;;;;;7.95;4.28;;;5.60;99.90;;;;;;4987505;28;20061;-71
2023/04/21 00:59:26;;;;;;;10.95;4.65;;;5.50;99.90;;;;;;4980868;28;20037;-71
2023/04/21 01:01:53;;;;;;;8.30;3.00;;;5.50;99.90;;;;;;4987556;28;20039;-71
2023/04/21 01:04:18;;;;;;;8.18;4.05;;;5.50;99.90;;;;;;4964026;28;20062;-71
2023/04/21 01:06:44;;;;;;;7.85;4.03;;;5.40;99.90;;;;;;4965581;28;20062;-71
2023/04/21 01:09:13;;;;;;;6.40;3.47;;;5.40;99.90;;;;;;4971029;28;20027;-71
2023/04/21 01:11:38;;;;;;;8.75;4.53;;;5.40;99.90;;;;;;4970905;28;20493;-71
2023/04/21 01:14:05;;;;;;;9.23;5.03;;;5.40;99.90;;;;;;4965523;28;20031;-71
2023/04/21 01:16:32;;;;;;;8.77;3.55;;;5.40;99.90;;;;;;4983852;28;20384;-71
2023/04/21 01:19:00;;;;;;;10.13;5.00;;;5.40;99.90;;;;;;4980820;28;20030;-71
2023/04/21 01:21:27;;;;;;;8.85;4.35;;;5.40;99.90;;;;;;4972451;28;20577;-70
2023/04/21 01:23:54;;;;;;;5.13;3.03;;;5.30;99.90;;;;;;4971009;28;20039;-71
2023/04/21 01:26:21;;;;;;;5.85;3.22;;;5.30;99.90;;;;;;4971613;28;20030;-71
2023/04/21 01:28:48;;;;;;;4.35;2.85;;;5.20;99.90;;;;;;4981936;28;20506;-70
2023/04/21 01:31:17;;;;;;;5.20;2.50;;;5.10;99.90;;;;;;4971176;28;20077;-70
2023/04/21 01:33:44;;;;;;;8.02;3.83;;;5.10;99.90;;;;;;4985933;28;20122;-70
2023/04/21 01:36:10;;;;;;;5.40;3.13;;;5.10;99.90;;;;;;4987236;28;20157;-70
2023/04/21 01:38:40;;;;;;;4.25;2.40;;;5.10;99.90;;;;;;4983687;28;20114;-70
2023/04/21 01:41:07;;;;;;;6.20;3.30;;;5.10;99.90;;;;;;4969999;28;20027;-70
2023/04/21 01:43:33;;;;;;;9.27;4.22;;;5.10;99.90;;;;;;4983388;28;20031;-70
2023/04/21 01:45:59;;;;;;;5.57;2.75;;;5.10;99.90;;;;;;4968970;28;20089;-70
2023/04/21 01:48:24;;;;;;;4.35;2.78;;;5.20;99.90;;;;;;4970084;28;20051;-70
2023/04/21 01:50:50;;;;;;;7.25;3.67;;;5.20;99.90;;;;;;4967618;28;20023;-70
2023/04/21 01:53:16;;;;;;;6.03;3.25;;;5.30;99.90;;;;;;4985564;28;20031;-70
2023/04/21 01:55:41;;;;;;;6.13;4.00;;;5.30;99.90;;;;;;4965508;28;20038;-70
2023/04/21 01:58:07;;;;;;;6.35;3.70;;;5.30;99.90;;;;;;4972166;28;20022;-71
2023/04/21 02:00:33;;;;;;;7.40;3.63;;;5.20;99.90;;;;;;4964787;28;20453;-70
2023/04/21 02:02:59;;;;;;;5.53;3.42;;;5.00;99.90;;;;;;4971503;28;20083;-70
2023/04/21 02:05:24;;;;;;;9.93;4.32;;;5.00;99.90;;;;;;4967083;28;20062;-71
2023/04/21 02:07:50;;;;;;;5.07;2.40;;;4.90;99.90;;;;;;4975917;28;20031;-71
2023/04/21 02:10:16;;;;;;;6.07;3.15;;;4.90;99.90;;;;;;4969605;28;20101;-71
2023/04/21 02:12:42;;;;;;;6.65;3.78;;;4.80;99.90;;;;;;4975489;28;20050;-71
2023/04/21 02:15:08;;;;;;;8.40;3.63;;;4.70;99.90;;;;;;4974286;28;20157;-71
2023/04/21 02:17:35;;;;;;;7.53;3.60;;;4.80;99.90;;;;;;4975924;28;20027;-71
2023/04/21 02:20:01;;;;;;;7.30;3.83;;;4.80;99.90;;;;;;4986314;28;20094;-71
2023/04/21 02:22:26;;;;;;;7.00;3.63;;;4.80;99.90;;;;;;4987274;28;20035;-71
2023/04/21 02:24:52;;;;;;;7.07;4.18;;;4.80;99.90;;;;;;4980663;28;20122;-71
2023/04/21 02:27:18;;;;;;;6.10;3.75;;;4.80;99.90;;;;;;4974639;28;20031;-71
2023/04/21 02:29:43;;;;;;;5.82;3.25;;;4.80;99.90;;;;;;4968763;28;20031;-70
2023/04/21 02:32:09;;;;;;;6.55;3.53;;;4.70;99.90;;;;;;4975434;28;20386;-71
2023/04/21 02:34:35;;;;;;;8.38;4.32;;;4.80;99.90;;;;;;4968271;28;20113;-71
2023/04/21 02:37:01;;;;;;;7.20;3.83;;;4.80;99.90;;;;;;4975215;28;20033;-71
2023/04/21 02:39:27;;;;;;;8.63;4.22;;;4.80;99.90;;;;;;4968840;28;20031;-71
2023/04/21 02:41:52;;;;;;;7.50;3.20;;;4.80;99.90;;;;;;4975318;28;20046;-70
2023/04/21 02:44:18;;;;;;;9.07;4.18;;;4.90;99.90;;;;;;4968283;28;20042;-71
2023/04/21 02:46:44;;;;;;;7.20;3.78;;;4.80;99.90;;;;;;4975123;28;20061;-71
2023/04/21 02:49:10;;;;;;;8.30;4.03;;;4.80;99.90;;;;;;4968438;28;20115;-71
2023/04/21 02:51:36;;;;;;;5.57;3.92;;;4.80;99.90;;;;;;4975199;28;20037;-70
2023/04/21 02:54:02;;;;;;;10.27;4.20;;;4.80;99.90;;;;;;4968328;28;20614;-71
2023/04/21 02:56:28;;;;;;;4.97;3.13;;;4.80;99.90;;;;;;4989991;28;20106;-70
2023/04/21 02:58:54;;;;;;;8.57;3.72;;;4.80;99.90;;;;;;4969070;28;20114;-70
2023/04/21 03:01:19;;;;;;;8.02;3.90;;;4.80;99.90;;;;;;4974105;28;20037;-71
2023/04/21 03:03:45;;;;;;;5.32;3.70;;;4.80;99.90;;;;;;4983508;23;20069;-69
2023/04/21 03:06:11;;;;;;;11.00;3.90;;;4.80;99.90;;;;;;4973949;28;20034;-69
2023/04/21 03:08:37;;;;;;;7.10;3.75;;;4.80;99.90;;;;;;4988325;28;20473;-68
2023/04/21 03:11:02;;;;;;;5.55;3.55;;;4.80;99.90;;;;;;4971696;28;20105;-68
2023/04/21 03:13:28;;;;;;;6.65;2.85;;;4.70;99.90;;;;;;4973979;28;20039;-68
2023/04/21 03:15:54;;;;;;;6.78;4.50;;;4.60;99.90;;;;;;4969876;28;20034;-69
2023/04/21 03:18:20;;;;;;;5.97;4.05;;;4.60;99.90;;;;;;4974491;28;20077;-69
2023/04/21 03:20:47;;;;;;;9.88;4.75;;;4.70;99.90;;;;;;4969954;28;20047;-69
2023/04/21 03:23:12;;;;;;;7.68;3.88;;;4.60;99.90;;;;;;4973887;28;20119;-69
2023/04/21 03:25:38;;;;;;;10.13;4.82;;;4.60;99.90;;;;;;4969942;28;20054;-69
2023/04/21 03:28:04;;;;;;;9.73;4.25;;;4.70;99.90;;;;;;4986661;28;20041;-69
2023/04/21 03:30:30;;;;;;;7.63;3.92;;;4.70;99.90;;;;;;4968787;28;20375;-69
2023/04/21 03:32:57;;;;;;;9.85;4.53;;;4.70;99.90;;;;;;4973956;28;20027;-68
2023/04/21 03:35:23;;;;;;;5.82;3.70;;;4.60;99.90;;;;;;4969761;28;20046;-70
2023/04/21 03:37:49;;;;;;;7.38;4.32;;;4.50;99.90;;;;;;4984493;28;20498;-67
2023/04/21 03:40:15;;;;;;;7.60;4.97;;;4.50;99.90;;;;;;4969680;28;20308;-67
2023/04/21 03:42:41;;;;;;;5.85;4.18;;;4.50;99.90;;;;;;4983256;28;20046;-67
2023/04/21 03:45:09;;;;;;;8.70;4.15;;;4.40;99.90;;;;;;4968718;28;20035;-67
2023/04/21 03:47:35;;;;;;;8.57;4.25;;;4.30;99.90;;;;;;4982152;28;20118;-68
2023/04/21 03:50:04;;;;;;;10.93;5.68;;;4.30;99.90;;;;;;4968090;28;20106;-67
2023/04/21 03:52:30;;;;;;;8.18;4.10;;;4.40;99.90;;;;;;4980940;28;20041;-67
2023/04/21 03:54:56;;;;;;;7.38;5.13;;;4.30;99.90;;;;;;4969327;28;20030;-68
2023/04/21 03:57:22;;;;;;;5.30;3.40;;;4.30;99.90;;;;;;4961869;28;20089;-67
2023/04/21 03:59:47;;;;;;;10.88;4.53;;;4.40;99.90;;;;;;4969393;28;20498;-67
2023/04/21 04:02:13;;;;;;;8.90;3.70;;;4.30;99.90;;;;;;4973442;28;20038;-67
2023/04/21 04:04:39;;;;;;;8.20;4.65;;;4.30;99.90;;;;;;4968893;28;20049;-67
2023/04/21 04:07:06;;;;;;;13.45;4.78;;;4.20;99.90;;;;;;4973485;28;20031;-67
2023/04/21 04:09:32;;;;;;;10.80;4.93;;;4.10;99.90;;;;;;4969078;28;20054;-70
2023/04/21 04:11:58;;;;;;;8.98;3.65;;;4.10;99.90;;;;;;4973456;28;20061;-68
2023/04/21 04:14:23;;;;;;;8.20;4.85;;;4.00;99.90;;;;;;4968714;28;20077;-68
2023/04/21 04:16:49;;;;;;;7.72;4.72;;;3.90;99.90;;;;;;4973547;28;20478;-68
2023/04/21 04:19:15;;;;;;;8.77;4.60;;;3.90;99.90;;;;;;4969356;28;20046;-68
2023/04/21 04:21:40;;;;;;;7.57;4.72;;;3.90;99.90;;;;;;4973115;28;20026;-69
2023/04/21 04:24:07;;;;;;;8.10;3.88;;;3.90;99.90;;;;;;4968530;28;20043;-68
2023/04/21 04:26:34;;;;;;;7.25;3.63;;;4.00;99.90;;;;;;4973296;28;20046;-69
2023/04/21 04:29:01;;;;;;;8.07;3.38;;;4.00;99.90;;;;;;4967176;28;20498;-69
2023/04/21 04:31:29;;;;;;;9.85;4.68;;;3.90;99.90;;;;;;4973114;28;20026;-69
2023/04/21 04:33:55;;;;;;;7.13;3.80;;;3.90;99.90;;;;;;4967408;28;20039;-68
2023/04/21 04:36:23;;;;;;;8.68;4.72;;;3.80;99.90;;;;;;4972522;28;20038;-68
2023/04/21 04:38:49;;;;;;;8.15;4.57;;;3.80;99.90;;;;;;4969380;28;20047;-68
2023/04/21 04:41:15;;;;;;;6.20;3.40;;;3.70;99.90;;;;;;4970345;28;20398;-68
2023/04/21 04:43:42;;;;;;;7.43;4.38;;;3.70;99.90;;;;;;4969070;28;20487;-68
2023/04/21 04:46:11;;;;;;;11.07;5.13;;;3.60;99.90;;;;;;4969288;28;20030;-69
2023/04/21 04:48:37;;;;;;;10.20;4.53;;;3.70;99.90;;;;;;4971350;28;20169;-68
2023/04/21 04:51:04;;;;;;;8.52;4.88;;;3.70;99.90;;;;;;4968646;28;20109;-68
2023/04/21 04:53:30;;;;;;;7.45;4.22;;;3.70;99.90;;;;;;4969893;28;20127;-68
2023/04/21 04:55:58;;;;;;;5.80;4.18;;;3.70;99.90;;;;;;4966068;28;20061;-67
2023/04/21 04:58:24;;;;;;;5.97;3.53;;;3.60;99.90;;;;;;4969362;28;20026;-69
2023/04/21 05:00:50;;;;;;;6.57;4.15;;;3.50;99.90;;;;;;4972001;28;20041;-68
2023/04/21 05:03:16;;;;;;;7.72;3.85;;;3.50;99.90;;;;;;4968231;28;20034;-67
2023/04/21 05:05:41;;;;;;;5.95;3.28;;;3.50;99.90;;;;;;4967413;28;20034;-68
2023/04/21 05:08:07;;;;;;;11.30;5.22;;;3.40;99.90;;;;;;4987263;28;20031;-69
2023/04/21 05:10:34;;;;;;;6.40;4.03;;;3.30;99.90;;;;;;4966510;28;20886;-69
2023/04/21 05:12:59;;;;;;;7.32;4.93;;;3.30;99.90;;;;;;4971604;28;20023;-68
2023/04/21 05:15:25;;;;;;;7.60;4.15;;;3.40;99.90;;;;;;4964910;28;20039;-68
2023/04/21 05:17:51;;;;;;;8.00;4.60;;;3.40;99.90;;;;;;4970970;28;20050;-68
2023/04/21 05:20:16;;;;;;;9.88;5.22;;;3.40;99.90;;;;;;4967926;28;20043;-68
2023/04/21 05:22:42;;;;;;;7.05;4.32;;;3.40;99.90;;;;;;4971553;28;20496;-68
2023/04/21 05:25:13;;;;;;;8.50;5.40;;;3.40;99.90;;;;;;4967263;28;20039;-68
2023/04/21 05:27:39;;;;;;;7.15;3.67;;;3.50;99.90;;;;;;4980436;28;20027;-68
2023/04/21 05:30:06;;;;;;;10.05;5.13;;;3.50;99.90;;;;;;4967449;28;20510;-68
2023/04/21 05:32:32;;;;;;;5.88;4.13;;;3.70;99.90;;;;;;4969653;28;20034;-68
2023/04/21 05:34:59;;;;;;;6.80;4.32;;;3.80;99.90;;;;;;4964489;28;20031;-68
2023/04/21 05:37:25;;;;;;;7.35;4.28;;;3.80;99.90;;;;;;4972039;28;20034;-68
2023/04/21 05:39:51;;;;;;;9.35;4.13;;;3.80;99.90;;;;;;4965679;28;20035;-69
2023/04/21 05:42:17;;;;;;;12.05;4.78;;;4.00;99.90;;;;;;4971692;28;20041;-69
2023/04/21 05:44:43;;;;;;;8.77;5.55;;;4.10;99.90;;;;;;4966583;28;20030;-69
2023/04/21 05:47:08;;;;;;;9.73;5.80;;;4.10;99.90;;;;;;4971525;28;20038;-68
2023/04/21 05:49:34;;;;;;;18.70;9.00;;;4.10;99.90;;;;;;4967196;28;20051;-69
2023/04/21 05:52:00;;;;;;;11.60;5.80;;;4.20;99.90;;;;;;4971303;28;20023;-69
2023/04/21 05:54:25;;;;;;;55.10;25.02;;;4.20;99.90;;;;;;4947800;28;20037;-67
2023/04/21 05:56:51;;;;;;;15.68;8.25;;;4.30;99.90;;;;;;4971804;28;20035;-70
2023/04/21 05:59:17;;;;;;;9.52;5.40;;;4.50;99.90;;;;;;4964153;28;20090;-69
2023/04/21 06:01:43;;;;;;;8.05;5.03;;;4.60;99.90;;;;;;4968778;28;20027;-69
2023/04/21 06:04:09;;;;;;;9.73;5.00;;;4.70;99.90;;;;;;4966037;28;20035;-68
2023/04/21 06:06:34;;;;;;;11.60;4.55;;;4.70;99.90;;;;;;4965577;28;20034;-70
2023/04/21 06:09:00;;;;;;;10.02;5.00;;;4.60;99.90;;;;;;4967350;28;20028;-68
2023/04/21 06:11:26;;;;;;;9.38;5.82;;;4.70;99.90;;;;;;4971426;28;20051;-69
2023/04/21 06:13:56;;;;;;;11.60;5.30;;;4.80;99.90;;;;;;4970722;28;20034;-69
2023/04/21 06:16:22;;;;;;;10.77;5.27;;;4.90;99.90;;;;;;4971217;28;20080;-69
2023/04/21 06:18:48;;;;;;;6.85;4.22;;;5.00;99.90;;;;;;4968799;28;20385;-69
2023/04/21 06:21:14;;;;;;;11.48;6.35;;;5.00;99.90;;;;;;4958800;28;20146;-69
2023/04/21 06:23:41;;;;;;;10.50;5.07;;;5.10;99.90;;;;;;4963622;28;20549;-69
2023/04/21 06:26:07;;;;;;;13.88;7.45;;;5.20;99.90;;;;;;4964712;28;20026;-69
2023/04/21 06:28:35;;;;;;;18.25;8.20;;;5.40;99.90;;;;;;4970166;28;20079;-70
2023/04/21 06:31:02;;;;;;;9.27;5.45;;;5.50;99.90;;;;;;4968689;28;20053;-69
2023/04/21 06:33:29;;;;;;;10.15;6.15;;;5.60;99.90;;;;;;4968541;28;20031;-69
2023/04/21 06:35:54;;;;;;;11.07;6.88;;;5.70;99.90;;;;;;4968211;28;20426;-70
2023/04/21 06:38:21;;;;;;;9.07;5.20;;;5.60;99.90;;;;;;4963044;28;20038;-70
2023/04/21 06:40:46;;;;;;;9.10;6.03;;;5.30;99.90;;;;;;4946742;28;20031;-69
2023/04/21 06:43:12;;;;;;;9.93;5.47;;;5.20;99.90;;;;;;4968287;28;20562;-70
2023/04/21 06:45:38;;;;;;;9.60;5.90;;;5.60;99.90;;;;;;4965161;28;20073;-69
2023/04/21 06:48:04;;;;;;;10.77;5.57;;;5.70;99.90;;;;;;4970745;28;20034;-69
2023/04/21 06:50:30;;;;;;;10.20;5.68;;;5.90;99.90;;;;;;4973965;28;20034;-69
2023/04/21 06:52:56;;;;;;;12.52;5.78;;;6.20;99.90;;;;;;4974213;28;20027;-69
2023/04/21 06:55:22;;;;;;;13.40;7.38;;;6.10;99.90;;;;;;4969263;28;20574;-69
2023/04/21 06:57:48;;;;;;;18.08;8.88;;;6.20;99.90;;;;;;4973775;28;20041;-69
2023/04/21 07:00:15;;;;;;;11.48;6.32;;;6.40;99.90;;;;;;4968278;28;20035;-70
2023/04/21 07:02:40;;;;;;;11.00;5.82;;;6.60;99.90;;;;;;4973662;28;20031;-69
2023/04/21 07:05:06;;;;;;;12.07;5.25;;;6.70;99.90;;;;;;4973177;28;20113;-70
2023/04/21 07:07:33;;;;;;;8.43;4.93;;;6.80;99.90;;;;;;4974055;28;20497;-69
2023/04/21 07:09:59;;;;;;;9.35;4.88;;;6.90;99.90;;;;;;4967109;28;20122;-69
2023/04/21 07:12:25;;;;;;;10.18;5.10;;;6.80;99.90;;;;;;4972841;28;20504;-70
2023/04/21 07:14:50;;;;;;;12.85;6.38;;;6.80;99.90;;;;;;4968454;28;20094;-69
2023/04/21 07:17:16;;;;;;;13.70;6.55;;;6.70;99.90;;;;;;4973092;28;20042;-69
2023/04/21 07:19:42;;;;;;;13.88;5.68;;;6.80;99.90;;;;;;4969179;28;20380;-69
2023/04/21 07:22:08;;;;;;;14.95;6.93;;;6.70;99.90;;;;;;4979433;28;20046;-69
2023/04/21 07:24:34;;;;;;;13.30;5.38;;;6.60;99.90;;;;;;4985372;28;20027;-69
2023/04/21 07:27:01;;;;;;;8.70;5.85;;;6.60;99.90;;;;;;4968616;28;20031;-69
2023/04/21 07:29:27;;;;;;;11.38;5.70;;;6.70;99.90;;;;;;4971870;28;20126;-69
2023/04/21 07:31:54;;;;;;;9.05;5.18;;;6.70;99.90;;;;;;4969580;28;20102;-69
2023/04/21 07:34:20;;;;;;;12.82;6.47;;;6.80;99.90;;;;;;4972556;28;20509;-69
2023/04/21 07:36:46;;;;;;;22.40;7.82;;;6.80;99.90;;;;;;4968563;28;20058;-69
2023/04/21 07:39:12;;;;;;;20.02;8.00;;;6.80;99.90;;;;;;4986890;28;20031;-69
2023/04/21 07:41:38;;;;;;;13.05;6.63;;;6.80;99.90;;;;;;4968192;28;20482;-69
2023/04/21 07:44:04;;;;;;;19.80;8.25;;;6.80;99.90;;;;;;4985388;28;20042;-69
2023/04/21 07:46:30;;;;;;;21.77;9.52;;;7.00;99.90;;;;;;4982754;28;20058;-69
2023/04/21 07:48:58;;;;;;;23.92;8.85;;;7.00;99.90;;;;;;4973365;28;20027;-69
2023/04/21 07:51:26;;;;;;;24.95;11.45;;;7.20;99.90;;;;;;4966152;28;20031;-69
2023/04/21 07:53:52;;;;;;;21.00;9.40;;;7.40;99.90;;;;;;4973143;28;20031;-69
2023/04/21 07:56:18;;;;;;;25.77;11.00;;;7.40;99.90;;;;;;4967258;28;20039;-68
2023/04/21 07:58:44;;;;;;;22.45;12.02;;;7.40;99.90;;;;;;4973353;28;20692;-69
2023/04/21 08:01:10;;;;;;;20.35;10.00;;;7.40;99.90;;;;;;4967248;28;20050;-68
2023/04/21 08:03:36;;;;;;;23.33;9.27;;;7.50;99.90;;;;;;4980965;28;20027;-69
2023/04/21 08:06:03;;;;;;;26.52;11.35;;;7.60;99.90;;;;;;4966105;28;20031;-68
2023/04/21 08:08:28;;;;;;;24.65;9.52;;;7.80;99.90;;;;;;4980865;28;20062;-68
2023/04/21 08:10:54;;;;;;;22.88;10.52;;;7.90;99.90;;;;;;4967520;28;20062;-69
2023/04/21 08:13:23;;;;;;;26.33;12.00;;;7.90;99.90;;;;;;4972498;28;20045;-69
2023/04/21 08:15:51;;;;;;;23.52;11.48;;;8.00;99.90;;;;;;4968801;28;20023;-68
2023/04/21 08:18:17;;;;;;;24.38;10.82;;;8.00;99.90;;;;;;4972969;28;20089;-69
2023/04/21 08:20:51;;;;;;;18.42;9.82;;;8.10;99.90;;;;;;4967276;28;20031;-69
2023/04/21 08:23:16;;;;;;;18.13;9.20;;;8.20;99.90;;;;;;4972594;28;20025;-69
2023/04/21 08:25:42;;;;;;;14.60;7.53;;;8.30;99.90;;;;;;4965273;28;20038;-69
2023/04/21 08:28:08;;;;;;;18.05;7.97;;;8.30;99.90;;;;;;4971451;28;20134;-68
2023/04/21 08:30:34;;;;;;;15.90;7.30;;;8.50;99.90;;;;;;4967103;28;20022;-68
2023/04/21 08:33:00;;;;;;;17.23;7.07;;;8.50;99.90;;;;;;4972455;28;20399;-69
2023/04/21 08:35:25;;;;;;;21.75;7.93;;;8.50;99.90;;;;;;4967333;28;20031;-69
2023/04/21 08:37:51;;;;;;;18.65;7.75;;;8.60;99.90;;;;;;4972321;28;20037;-69
2023/04/21 08:40:18;;;;;;;21.80;7.93;;;8.80;99.90;;;;;;4966525;28;20047;-68
2023/04/21 08:42:47;;;;;;;13.95;6.68;;;9.00;99.90;;;;;;4972170;28;20081;-68
2023/04/21 08:45:12;;;;;;;15.52;6.72;;;9.10;99.90;;;;;;4966650;28;20075;-68
2023/04/21 08:47:40;;;;;;;14.77;7.15;;;9.20;99.90;;;;;;4972540;28;20060;-68
2023/04/21 08:50:11;;;;;;;18.27;6.88;;;9.30;99.90;;;;;;4966746;28;20027;-68
2023/04/21 08:52:37;;;;;;;12.98;6.80;;;9.50;99.90;;;;;;4970329;28;20066;-68
2023/04/21 08:55:06;;;;;;;18.52;7.07;;;9.60;99.90;;;;;;4966581;28;20078;-68
2023/04/21 08:57:32;;;;;;;15.48;6.50;;;9.70;99.90;;;;;;4972065;28;20190;-68
2023/04/21 08:59:58;;;;;;;13.93;7.40;;;9.90;99.90;;;;;;4967114;28;20043;-68
2023/04/21 09:02:23;;;;;;;17.55;8.02;;;9.90;99.90;;;;;;4963336;28;20031;-68
2023/04/21 09:04:50;;;;;;;16.50;6.30;;;10.20;99.90;;;;;;4972243;23;20047;-66
2023/04/21 09:07:34;;;;;;;16.88;7.10;;;10.40;99.90;;;;;;4944487;29;20043;-67
2023/04/21 09:10:02;;;;;;;17.17;5.82;;;10.50;99.90;;;;;;4961731;28;20068;-64
2023/04/21 09:12:28;;;;;;;11.45;4.30;;;10.80;99.90;;;;;;4964003;28;20106;-65
2023/04/21 09:14:56;;;;;;;9.75;5.22;;;10.90;99.90;;;;;;4940558;29;20487;-69
2023/04/21 09:17:31;;;;;;;8.88;4.75;;;11.00;99.90;;;;;;4952385;28;20031;-67
2023/04/21 09:20:13;;;;;;;7.93;4.00;;;11.10;99.90;;;;;;4950053;28;20038;-65
2023/04/21 09:22:38;;;;;;;12.20;5.90;;;11.20;99.90;;;;;;4954272;28;20078;-66
2023/04/21 09:25:05;;;;;;;7.63;3.90;;;11.30;99.90;;;;;;4941935;29;20070;-68
2023/04/21 09:27:30;;;;;;;9.23;3.58;;;11.20;99.90;;;;;;4952496;28;20514;-68
2023/04/21 09:30:05;;;;;;;7.60;2.78;;;11.40;99.90;;;;;;4961520;28;20043;-65
2023/04/21 09:32:39;;;;;;;7.40;3.78;;;11.50;99.90;;;;;;4952318;28;20078;-67
2023/04/21 09:35:13;;;;;;;7.90;3.25;;;11.60;99.90;;;;;;4949794;28;20093;-68
2023/04/21 09:37:43;;;;;;;9.35;4.57;;;11.70;99.90;;;;;;4952379;28;20104;-66
2023/04/21 09:40:17;;;;;;;8.75;4.47;;;11.90;99.90;;;;;;4949952;28;20499;-66
2023/04/21 09:42:43;;;;;;;7.82;4.25;;;11.70;99.90;;;;;;4966283;28;20130;-68
2023/04/21 09:45:09;;;;;;;8.15;3.38;;;11.90;99.90;;;;;;4947595;28;20495;-68
2023/04/21 09:47:41;;;;;;;7.38;4.22;;;12.20;99.90;;;;;;4951748;29;20038;-67
2023/04/21 09:50:10;;;;;;;7.88;3.75;;;12.40;99.90;;;;;;4968940;28;20281;-67
2023/04/21 09:52:38;;;;;;;9.70;4.72;;;12.50;99.90;;;;;;4951670;28;20363;-67
2023/04/21 09:55:10;;;;;;;6.97;4.18;;;12.30;99.90;;;;;;4949267;29;20077;-67
2023/04/21 09:57:41;;;;;;;10.48;3.72;;;12.50;99.90;;;;;;4951937;28;20038;-67
2023/04/21 10:00:11;;;;;;;8.18;3.85;;;12.90;99.90;;;;;;4949437;28;20066;-66
2023/04/21 10:02:46;;;;;;;7.40;3.35;;;13.10;99.90;;;;;;4966209;28;20031;-66
2023/04/21 10:05:12;;;;;;;7.85;4.55;;;13.40;99.90;;;;;;4950551;28;20067;-67
2023/04/21 10:07:38;;;;;;;7.75;3.33;;;13.40;99.90;;;;;;4952084;28;20514;-67
2023/04/21 10:10:10;;;;;;;8.45;3.92;;;13.50;99.90;;;;;;4949267;29;20090;-67
2023/04/21 10:12:36;;;;;;;5.70;3.17;;;13.30;99.90;;;;;;4962617;28;20032;-66
2023/04/21 10:15:05;;;;;;;7.43;3.42;;;13.60;99.90;;;;;;4941471;29;20031;-66
2023/04/21 10:17:35;;;;;;;9.40;4.53;;;13.80;99.90;;;;;;4951731;28;20042;-68
2023/04/21 10:20:09;;;;;;;10.88;4.75;;;14.10;99.90;;;;;;4950662;28;20047;-68
2023/04/21 10:22:37;;;;;;;9.15;3.85;;;14.40;99.90;;;;;;4947245;29;20122;-68
2023/04/21 10:25:08;;;;;;;6.85;3.40;;;14.10;99.90;;;;;;4950281;28;20321;-67
2023/04/21 10:27:35;;;;;;;;;;;14.40;99.90;;;;;;4962604;28;20514;-67
2023/04/21 10:30:27;;;;;;;5.72;2.97;;;14.60;99.90;;;;;;4952466;29;19949;-66
2023/04/21 10:33:04;;;;;;;8.75;4.03;;;14.70;99.90;;;;;;4951172;28;20039;-67
2023/04/21 10:36:01;;;;;;;6.43;3.50;;;15.10;99.90;;;;;;4943677;29;20035;-67
2023/04/21 10:38:41;;;;;;;7.80;3.65;;;14.70;99.90;;;;;;4950927;29;20038;-68
2023/04/21 10:41:27;;;;;;;6.53;3.07;;;14.80;99.90;;;;;;4955156;29;20023;-66
2023/04/21 10:43:56;;;;;;;7.32;3.47;;;15.10;99.90;;;;;;4953268;29;20098;-68
2023/04/21 10:46:40;;;;;;;6.00;3.08;;;15.00;99.90;;;;;;4969285;28;20019;-67
2023/04/21 10:49:29;;;;;;;7.18;3.50;;;15.60;99.90;;;;;;4951933;29;20530;-67
2023/04/21 10:54:25;;;;;;;4.88;2.40;;;16.10;99.90;;;;;;4947978;29;20053;-69
2023/04/21 10:56:53;;;;;;;6.15;2.78;;;16.00;99.90;;;;;;4951794;28;20038;-67
2023/04/21 10:59:20;;;;;;;5.82;2.33;;;16.00;99.90;;;;;;4954357;29;20039;-65
2023/04/21 11:01:46;;;;;;;5.90;3.15;;;16.40;99.90;;;;;;4952615;28;20028;-67
2023/04/21 11:04:16;;;;;;;7.18;2.90;;;16.60;99.90;;;;;;4952621;29;20046;-69
2023/04/21 11:07:03;;;;;;;4.80;2.70;;;16.70;99.90;;;;;;4941295;28;20035;-66
2023/04/21 11:09:29;;;;;;;6.75;2.67;;;16.70;99.90;;;;;;4958081;28;20050;-68
2023/04/21 11:12:01;;;;;;;4.95;2.67;;;16.80;99.90;;;;;;4947859;29;20388;-68
2023/04/21 11:14:27;;;;;;;8.63;3.30;;;16.60;99.90;;;;;;4954362;28;20483;-68
2023/04/21 11:16:53;;;;;;;6.10;2.80;;;17.00;99.90;;;;;;4948153;29;20047;-68
2023/04/21 11:19:24;;;;;;;4.75;2.50;;;17.30;99.90;;;;;;4952736;29;20054;-68
2023/04/21 11:21:49;;;;;;;7.05;3.22;;;17.80;99.90;;;;;;4948632;28;20134;-68
2023/04/21 11:24:15;;;;;;;5.25;2.70;;;17.80;99.90;;;;;;4952920;29;20082;-67
2023/04/21 11:26:43;;;;;;;6.15;3.13;;;17.50;99.90;;;;;;4949379;28;20458;-68
2023/04/21 11:29:10;;;;;;;5.40;2.60;;;17.70;99.90;;;;;;4952398;29;20488;-67
2023/04/21 11:31:40;;;;;;;3.53;1.70;;;17.80;99.90;;;;;;4948930;29;20035;-68
2023/04/21 11:34:06;;;;;;;6.60;2.40;;;18.30;99.90;;;;;;4966169;28;20083;-69
2023/04/21 11:36:38;;;;;;;6.22;2.97;;;18.20;99.90;;;;;;4964617;28;20068;-68
2023/04/21 11:39:10;;;;;;;4.38;2.40;;;18.10;99.90;;;;;;4951583;29;20055;-67
2023/04/21 11:41:45;;;;;;;5.18;2.70;;;18.40;99.90;;;;;;4950163;29;20395;-69
2023/04/21 11:44:12;;;;;;;5.20;2.85;;;17.60;99.90;;;;;;4950622;29;20039;-69
2023/04/21 11:46:45;;;;;;;4.85;2.42;;;18.10;99.90;;;;;;4949805;28;20031;-70
2023/04/21 11:49:14;;;;;;;5.82;2.83;;;18.30;99.90;;;;;;4951587;29;20046;-69
2023/04/21 11:51:42;;;;;;;9.10;3.05;;;18.80;99.90;;;;;;4949436;28;20032;-69
2023/04/21 11:54:11;;;;;;;5.35;2.58;;;19.10;99.90;;;;;;4948310;28;20039;-69
2023/04/21 11:56:45;;;;;;;5.78;2.88;;;19.20;99.70;;;;;;4964118;28;20027;-68
2023/04/21 11:59:18;;;;;;;5.93;2.72;;;18.50;99.60;;;;;;4952196;29;20047;-68
2023/04/21 12:01:45;;;;;;;5.78;2.83;;;19.00;99.10;;;;;;4962906;28;20079;-69
2023/04/21 12:04:23;;;;;;;4.07;2.08;;;18.70;99.30;;;;;;4950497;29;20035;-67
2023/04/21 12:07:00;;;;;;;6.25;3.13;;;19.40;99.50;;;;;;4962581;28;20036;-68
2023/04/21 12:09:28;;;;;;;7.05;3.05;;;19.20;98.50;;;;;;4952294;29;20026;-69
2023/04/21 12:11:57;;;;;;;8.27;3.67;;;20.00;97.00;;;;;;4953044;28;20035;-68
2023/04/21 12:14:25;;;;;;;7.03;3.00;;;19.60;97.30;;;;;;4967446;28;20526;-68
2023/04/21 12:16:54;;;;;;;5.88;3.15;;;20.30;96.20;;;;;;4947113;28;20040;-69
2023/04/21 12:19:38;;;;;;;5.75;3.22;;;20.70;96.00;;;;;;4952594;28;20031;-69
2023/04/21 12:22:19;;;;;;;5.93;2.97;;;19.70;96.50;;;;;;4946216;28;20044;-68
2023/04/21 12:24:46;;;;;;;7.03;3.58;;;19.00;97.90;;;;;;4952918;29;20027;-68
2023/04/21 12:27:12;;;;;;;5.25;2.95;;;19.30;98.70;;;;;;4946070;29;20404;-68
2023/04/21 12:29:39;;;;;;;6.28;2.83;;;19.30;97.80;;;;;;4968405;28;20027;-68
2023/04/21 12:32:06;;;;;;;9.20;3.15;;;19.50;96.80;;;;;;4945797;28;20028;-68
2023/04/21 12:34:32;;;;;;;5.95;2.60;;;19.80;98.10;;;;;;4967782;28;20035;-69
2023/04/21 12:36:58;;;;;;;7.25;2.80;;;20.20;97.30;;;;;;4945860;28;20519;-69
2023/04/21 12:39:24;;;;;;;7.43;2.25;;;21.40;96.50;;;;;;4951695;29;20035;-69
2023/04/21 12:41:50;;;;;;;9.32;3.22;;;20.90;96.10;;;;;;4946833;28;20403;-69
2023/04/21 12:44:16;;;;;;;4.57;2.22;;;21.50;94.90;;;;;;4950290;29;20028;-69
2023/04/21 12:46:41;;;;;;;7.18;2.78;;;21.40;95.40;;;;;;4948183;28;20019;-69
2023/04/21 12:49:08;;;;;;;6.22;2.58;;;21.00;94.10;;;;;;4948721;28;20109;-69
2023/04/21 12:51:34;;;;;;;4.60;2.67;;;20.90;95.10;;;;;;4950085;28;20682;-69
2023/04/21 12:54:00;;;;;;;5.75;3.13;;;21.50;93.50;;;;;;4952229;28;20035;-69